sensor_id;sensor_type;location;lat;lon;timestamp;P1;durP1;ratioP1;P2;durP2;ratioP2
54831;SDS011;40730;53.068;6.572;2023-04-01T00:00:53;16.67;;;10.38;;
54831;SDS011;40730;53.068;6.572;2023-04-01T00:03:21;16.42;;;10.75;;
54831;SDS011;40730;53.068;6.572;2023-04-01T00:05:47;19.70;;;11.57;;
54831;SDS011;40730;53.068;6.572;2023-04-01T00:08:13;18.17;;;10.88;;
54831;SDS011;40730;53.068;6.572;2023-04-01T00:10:40;15.88;;;9.60;;
54831;SDS011;40730;53.068;6.572;2023-04-01T00:13:05;19.60;;;11.02;;
54831;SDS011;40730;53.068;6.572;2023-04-01T00:15:31;15.95;;;9.70;;
54831;SDS011;40730;53.068;6.572;2023-04-01T00:17:57;15.65;;;9.88;;
54831;SDS011;40730;53.068;6.572;2023-04-01T00:20:23;17.45;;;10.20;;
54831;SDS011;40730;53.068;6.572;2023-04-01T00:22:49;15.75;;;9.63;;
54831;SDS011;40730;53.068;6.572;2023-04-01T00:25:15;18.08;;;10.40;;
54831;SDS011;40730;53.068;6.572;2023-04-01T00:27:41;16.85;;;9.93;;
54831;SDS011;40730;53.068;6.572;2023-04-01T00:30:07;15.90;;;9.38;;
54831;SDS011;40730;53.068;6.572;2023-04-01T00:32:34;17.38;;;9.05;;
54831;SDS011;40730;53.068;6.572;2023-04-01T00:35:00;16.92;;;9.57;;
54831;SDS011;40730;53.068;6.572;2023-04-01T00:37:26;18.35;;;10.10;;
54831;SDS011;40730;53.068;6.572;2023-04-01T00:39:52;16.85;;;9.50;;
54831;SDS011;40730;53.068;6.572;2023-04-01T00:42:18;18.42;;;10.20;;
54831;SDS011;40730;53.068;6.572;2023-04-01T00:44:54;16.20;;;10.00;;
54831;SDS011;40730;53.068;6.572;2023-04-01T00:49:48;19.60;;;10.75;;
54831;SDS011;40730;53.068;6.572;2023-04-01T00:52:17;19.05;;;10.77;;
54831;SDS011;40730;53.068;6.572;2023-04-01T00:54:47;17.30;;;10.80;;
54831;SDS011;40730;53.068;6.572;2023-04-01T00:57:19;19.42;;;10.55;;
54831;SDS011;40730;53.068;6.572;2023-04-01T00:59:49;18.65;;;10.98;;
54831;SDS011;40730;53.068;6.572;2023-04-01T01:02:18;20.83;;;11.25;;
54831;SDS011;40730;53.068;6.572;2023-04-01T01:04:44;17.33;;;11.05;;
54831;SDS011;40730;53.068;6.572;2023-04-01T01:07:17;19.30;;;11.25;;
54831;SDS011;40730;53.068;6.572;2023-04-01T01:12:40;18.35;;;11.20;;
54831;SDS011;40730;53.068;6.572;2023-04-01T01:15:16;19.27;;;11.18;;
54831;SDS011;40730;53.068;6.572;2023-04-01T01:17:56;22.08;;;11.77;;
54831;SDS011;40730;53.068;6.572;2023-04-01T01:23:30;20.75;;;11.63;;
54831;SDS011;40730;53.068;6.572;2023-04-01T01:36:56;18.88;;;10.82;;
54831;SDS011;40730;53.068;6.572;2023-04-01T01:39:26;19.10;;;10.63;;
54831;SDS011;40730;53.068;6.572;2023-04-01T01:41:56;20.88;;;11.50;;
54831;SDS011;40730;53.068;6.572;2023-04-01T01:44:24;21.00;;;11.30;;
54831;SDS011;40730;53.068;6.572;2023-04-01T01:46:53;21.33;;;10.80;;
54831;SDS011;40730;53.068;6.572;2023-04-01T01:49:20;16.80;;;10.07;;
54831;SDS011;40730;53.068;6.572;2023-04-01T01:51:47;22.55;;;11.23;;
54831;SDS011;40730;53.068;6.572;2023-04-01T01:54:13;22.08;;;11.00;;
54831;SDS011;40730;53.068;6.572;2023-04-01T01:56:40;24.30;;;11.77;;
54831;SDS011;40730;53.068;6.572;2023-04-01T01:59:09;22.13;;;11.50;;
54831;SDS011;40730;53.068;6.572;2023-04-01T02:01:38;22.70;;;11.55;;
54831;SDS011;40730;53.068;6.572;2023-04-01T02:04:08;23.83;;;10.98;;
54831;SDS011;40730;53.068;6.572;2023-04-01T02:06:36;23.02;;;10.73;;
54831;SDS011;40730;53.068;6.572;2023-04-01T02:09:07;23.65;;;10.82;;
54831;SDS011;40730;53.068;6.572;2023-04-01T02:14:47;20.48;;;11.02;;
54831;SDS011;40730;53.068;6.572;2023-04-01T02:17:08;23.33;;;10.52;;
54831;SDS011;40730;53.068;6.572;2023-04-01T02:19:47;27.00;;;11.02;;
54831;SDS011;40730;53.068;6.572;2023-04-01T02:22:25;21.73;;;10.57;;
54831;SDS011;40730;53.068;6.572;2023-04-01T02:25:00;23.27;;;9.70;;
54831;SDS011;40730;53.068;6.572;2023-04-01T02:27:31;20.33;;;9.98;;
54831;SDS011;40730;53.068;6.572;2023-04-01T02:29:57;18.98;;;10.35;;
54831;SDS011;40730;53.068;6.572;2023-04-01T02:32:23;20.88;;;10.23;;
54831;SDS011;40730;53.068;6.572;2023-04-01T02:34:50;21.67;;;10.43;;
54831;SDS011;40730;53.068;6.572;2023-04-01T02:37:16;20.55;;;10.68;;
54831;SDS011;40730;53.068;6.572;2023-04-01T02:39:42;20.48;;;10.23;;
54831;SDS011;40730;53.068;6.572;2023-04-01T02:42:08;20.85;;;11.40;;
54831;SDS011;40730;53.068;6.572;2023-04-01T02:44:33;22.30;;;9.88;;
54831;SDS011;40730;53.068;6.572;2023-04-01T02:46:59;16.88;;;8.90;;
54831;SDS011;40730;53.068;6.572;2023-04-01T02:49:25;18.20;;;9.43;;
54831;SDS011;40730;53.068;6.572;2023-04-01T02:51:50;24.45;;;10.70;;
54831;SDS011;40730;53.068;6.572;2023-04-01T02:54:17;25.75;;;10.50;;
54831;SDS011;40730;53.068;6.572;2023-04-01T02:56:43;22.52;;;10.73;;
54831;SDS011;40730;53.068;6.572;2023-04-01T02:59:08;22.38;;;10.57;;
54831;SDS011;40730;53.068;6.572;2023-04-01T03:01:34;29.10;;;11.35;;
54831;SDS011;40730;53.068;6.572;2023-04-01T03:03:59;28.83;;;10.98;;
54831;SDS011;40730;53.068;6.572;2023-04-01T03:06:25;25.42;;;11.48;;
54831;SDS011;40730;53.068;6.572;2023-04-01T03:08:51;25.55;;;11.48;;
54831;SDS011;40730;53.068;6.572;2023-04-01T03:11:16;27.75;;;11.52;;
54831;SDS011;40730;53.068;6.572;2023-04-01T03:13:42;22.75;;;10.82;;
54831;SDS011;40730;53.068;6.572;2023-04-01T03:16:07;23.00;;;10.18;;
54831;SDS011;40730;53.068;6.572;2023-04-01T03:18:33;29.55;;;10.50;;
54831;SDS011;40730;53.068;6.572;2023-04-01T03:21:21;27.83;;;11.38;;
54831;SDS011;40730;53.068;6.572;2023-04-01T03:23:48;28.35;;;12.40;;
54831;SDS011;40730;53.068;6.572;2023-04-01T03:26:13;32.42;;;12.95;;
54831;SDS011;40730;53.068;6.572;2023-04-01T03:28:39;32.70;;;12.90;;
54831;SDS011;40730;53.068;6.572;2023-04-01T03:31:05;33.47;;;14.60;;
54831;SDS011;40730;53.068;6.572;2023-04-01T03:33:31;35.13;;;14.52;;
54831;SDS011;40730;53.068;6.572;2023-04-01T03:35:57;29.08;;;13.52;;
54831;SDS011;40730;53.068;6.572;2023-04-01T03:38:23;33.55;;;13.60;;
54831;SDS011;40730;53.068;6.572;2023-04-01T03:40:49;40.40;;;16.17;;
54831;SDS011;40730;53.068;6.572;2023-04-01T03:43:15;36.88;;;15.32;;
54831;SDS011;40730;53.068;6.572;2023-04-01T03:45:45;40.50;;;16.60;;
54831;SDS011;40730;53.068;6.572;2023-04-01T03:48:12;41.80;;;16.73;;
54831;SDS011;40730;53.068;6.572;2023-04-01T03:50:38;39.75;;;16.67;;
54831;SDS011;40730;53.068;6.572;2023-04-01T03:53:04;37.67;;;16.17;;
54831;SDS011;40730;53.068;6.572;2023-04-01T03:55:29;33.88;;;14.02;;
54831;SDS011;40730;53.068;6.572;2023-04-01T03:57:55;27.90;;;13.50;;
54831;SDS011;40730;53.068;6.572;2023-04-01T04:00:21;30.45;;;12.48;;
54831;SDS011;40730;53.068;6.572;2023-04-01T04:02:46;32.20;;;13.05;;
54831;SDS011;40730;53.068;6.572;2023-04-01T04:05:12;40.40;;;14.95;;
54831;SDS011;40730;53.068;6.572;2023-04-01T04:07:38;39.10;;;15.90;;
54831;SDS011;40730;53.068;6.572;2023-04-01T04:10:03;41.10;;;15.85;;
54831;SDS011;40730;53.068;6.572;2023-04-01T04:12:30;39.60;;;16.38;;
54831;SDS011;40730;53.068;6.572;2023-04-01T04:14:55;45.33;;;17.08;;
54831;SDS011;40730;53.068;6.572;2023-04-01T04:17:21;44.13;;;16.30;;
54831;SDS011;40730;53.068;6.572;2023-04-01T04:19:46;42.63;;;15.43;;
54831;SDS011;40730;53.068;6.572;2023-04-01T04:22:12;44.75;;;16.00;;
54831;SDS011;40730;53.068;6.572;2023-04-01T04:24:37;40.08;;;16.45;;
54831;SDS011;40730;53.068;6.572;2023-04-01T04:27:03;39.17;;;15.88;;
54831;SDS011;40730;53.068;6.572;2023-04-01T04:29:29;31.17;;;12.43;;
54831;SDS011;40730;53.068;6.572;2023-04-01T04:31:55;36.85;;;13.18;;
54831;SDS011;40730;53.068;6.572;2023-04-01T04:34:20;36.20;;;13.50;;
54831;SDS011;40730;53.068;6.572;2023-04-01T04:36:47;30.73;;;13.13;;
54831;SDS011;40730;53.068;6.572;2023-04-01T04:39:13;34.72;;;12.98;;
54831;SDS011;40730;53.068;6.572;2023-04-01T04:41:39;31.80;;;10.75;;
54831;SDS011;40730;53.068;6.572;2023-04-01T04:44:05;29.10;;;10.77;;
54831;SDS011;40730;53.068;6.572;2023-04-01T04:46:31;28.45;;;11.20;;
54831;SDS011;40730;53.068;6.572;2023-04-01T04:48:57;26.45;;;10.18;;
54831;SDS011;40730;53.068;6.572;2023-04-01T04:51:22;30.67;;;11.10;;
54831;SDS011;40730;53.068;6.572;2023-04-01T04:53:48;29.13;;;11.20;;
54831;SDS011;40730;53.068;6.572;2023-04-01T04:56:21;29.15;;;11.02;;
54831;SDS011;40730;53.068;6.572;2023-04-01T04:58:47;28.73;;;10.57;;
54831;SDS011;40730;53.068;6.572;2023-04-01T05:01:14;23.20;;;8.77;;
54831;SDS011;40730;53.068;6.572;2023-04-01T05:03:41;27.13;;;10.70;;
54831;SDS011;40730;53.068;6.572;2023-04-01T05:06:07;30.30;;;11.02;;
54831;SDS011;40730;53.068;6.572;2023-04-01T05:08:34;28.67;;;10.73;;
54831;SDS011;40730;53.068;6.572;2023-04-01T05:11:01;29.90;;;11.60;;
54831;SDS011;40730;53.068;6.572;2023-04-01T05:13:28;25.15;;;10.05;;
54831;SDS011;40730;53.068;6.572;2023-04-01T05:15:54;27.95;;;11.70;;
54831;SDS011;40730;53.068;6.572;2023-04-01T05:18:20;27.40;;;11.48;;
54831;SDS011;40730;53.068;6.572;2023-04-01T05:20:48;30.30;;;12.20;;
54831;SDS011;40730;53.068;6.572;2023-04-01T05:23:15;30.33;;;11.95;;
54831;SDS011;40730;53.068;6.572;2023-04-01T05:25:41;26.15;;;10.38;;
54831;SDS011;40730;53.068;6.572;2023-04-01T05:28:06;24.90;;;10.80;;
54831;SDS011;40730;53.068;6.572;2023-04-01T05:30:32;26.88;;;10.27;;
54831;SDS011;40730;53.068;6.572;2023-04-01T05:32:57;27.25;;;10.75;;
54831;SDS011;40730;53.068;6.572;2023-04-01T05:35:23;25.65;;;9.88;;
54831;SDS011;40730;53.068;6.572;2023-04-01T05:37:49;27.33;;;9.93;;
54831;SDS011;40730;53.068;6.572;2023-04-01T05:40:15;21.38;;;9.00;;
54831;SDS011;40730;53.068;6.572;2023-04-01T05:42:41;20.48;;;8.07;;
54831;SDS011;40730;53.068;6.572;2023-04-01T05:45:07;18.02;;;7.32;;
54831;SDS011;40730;53.068;6.572;2023-04-01T05:47:34;18.27;;;7.32;;
54831;SDS011;40730;53.068;6.572;2023-04-01T05:49:59;15.05;;;6.43;;
54831;SDS011;40730;53.068;6.572;2023-04-01T05:52:25;12.70;;;5.18;;
54831;SDS011;40730;53.068;6.572;2023-04-01T05:54:51;12.50;;;4.55;;
54831;SDS011;40730;53.068;6.572;2023-04-01T05:57:17;12.90;;;4.68;;
54831;SDS011;40730;53.068;6.572;2023-04-01T05:59:42;9.57;;;4.50;;
54831;SDS011;40730;53.068;6.572;2023-04-01T06:02:08;12.15;;;4.55;;
54831;SDS011;40730;53.068;6.572;2023-04-01T06:04:37;7.32;;;3.80;;
54831;SDS011;40730;53.068;6.572;2023-04-01T06:07:09;9.00;;;3.95;;
54831;SDS011;40730;53.068;6.572;2023-04-01T06:09:40;10.73;;;4.57;;
54831;SDS011;40730;53.068;6.572;2023-04-01T06:23:10;25.00;;;10.27;;
54831;SDS011;40730;53.068;6.572;2023-04-01T06:31:26;38.13;;;14.38;;
54831;SDS011;40730;53.068;6.572;2023-04-01T06:40:33;38.35;;;16.48;;
54831;SDS011;40730;53.068;6.572;2023-04-01T06:43:07;39.95;;;17.35;;
54831;SDS011;40730;53.068;6.572;2023-04-01T06:54:05;43.28;;;18.50;;
54831;SDS011;40730;53.068;6.572;2023-04-01T06:56:42;41.38;;;17.88;;
54831;SDS011;40730;53.068;6.572;2023-04-01T07:01:53;45.13;;;19.55;;
54831;SDS011;40730;53.068;6.572;2023-04-01T07:04:25;51.38;;;21.38;;
54831;SDS011;40730;53.068;6.572;2023-04-01T07:06:57;42.05;;;18.40;;
54831;SDS011;40730;53.068;6.572;2023-04-01T07:09:37;41.50;;;19.35;;
54831;SDS011;40730;53.068;6.572;2023-04-01T07:12:09;40.28;;;16.35;;
54831;SDS011;40730;53.068;6.572;2023-04-01T07:14:54;41.00;;;17.63;;
54831;SDS011;40730;53.068;6.572;2023-04-01T07:17:25;42.80;;;18.83;;
54831;SDS011;40730;53.068;6.572;2023-04-01T07:19:56;46.40;;;18.75;;
54831;SDS011;40730;53.068;6.572;2023-04-01T07:22:32;41.88;;;18.38;;
54831;SDS011;40730;53.068;6.572;2023-04-01T07:25:02;44.38;;;19.65;;
54831;SDS011;40730;53.068;6.572;2023-04-01T07:27:46;36.47;;;17.00;;
54831;SDS011;40730;53.068;6.572;2023-04-01T07:30:16;42.60;;;19.02;;
54831;SDS011;40730;53.068;6.572;2023-04-01T07:35:29;39.13;;;16.60;;
54831;SDS011;40730;53.068;6.572;2023-04-01T07:46:18;42.17;;;18.98;;
54831;SDS011;40730;53.068;6.572;2023-04-01T07:52:38;40.08;;;18.25;;
54831;SDS011;40730;53.068;6.572;2023-04-01T07:55:14;43.63;;;19.17;;
54831;SDS011;40730;53.068;6.572;2023-04-01T08:01:05;50.78;;;20.05;;
54831;SDS011;40730;53.068;6.572;2023-04-01T08:06:36;47.92;;;20.88;;
54831;SDS011;40730;53.068;6.572;2023-04-01T08:17:38;46.40;;;20.90;;
54831;SDS011;40730;53.068;6.572;2023-04-01T08:25:28;38.58;;;17.95;;
54831;SDS011;40730;53.068;6.572;2023-04-01T08:30:28;32.17;;;15.45;;
54831;SDS011;40730;53.068;6.572;2023-04-01T08:36:03;34.75;;;16.30;;
54831;SDS011;40730;53.068;6.572;2023-04-01T08:38:40;33.70;;;17.25;;
54831;SDS011;40730;53.068;6.572;2023-04-01T09:00:23;17.55;;;11.75;;
54831;SDS011;40730;53.068;6.572;2023-04-01T09:16:13;21.10;;;12.27;;
54831;SDS011;40730;53.068;6.572;2023-04-01T09:18:58;24.50;;;14.68;;
54831;SDS011;40730;53.068;6.572;2023-04-01T09:21:57;23.95;;;13.55;;
54831;SDS011;40730;53.068;6.572;2023-04-01T09:27:30;18.73;;;11.38;;
54831;SDS011;40730;53.068;6.572;2023-04-01T09:35:48;17.45;;;11.38;;
54831;SDS011;40730;53.068;6.572;2023-04-01T09:43:22;16.67;;;10.98;;
54831;SDS011;40730;53.068;6.572;2023-04-01T09:46:03;11.93;;;7.57;;
54831;SDS011;40730;53.068;6.572;2023-04-01T10:05:58;3.80;;;2.20;;
54831;SDS011;40730;53.068;6.572;2023-04-01T10:14:55;3.67;;;2.42;;
54831;SDS011;40730;53.068;6.572;2023-04-01T10:20:45;5.60;;;4.07;;
54831;SDS011;40730;53.068;6.572;2023-04-01T10:23:39;5.95;;;4.15;;
54831;SDS011;40730;53.068;6.572;2023-04-01T10:29:25;3.33;;;3.00;;
54831;SDS011;40730;53.068;6.572;2023-04-01T10:34:48;3.67;;;2.88;;
54831;SDS011;40730;53.068;6.572;2023-04-01T10:40:31;3.90;;;3.17;;
54831;SDS011;40730;53.068;6.572;2023-04-01T10:43:24;2.85;;;2.03;;
54831;SDS011;40730;53.068;6.572;2023-04-01T10:46:36;3.78;;;2.70;;
54831;SDS011;40730;53.068;6.572;2023-04-01T10:49:41;2.78;;;2.15;;
54831;SDS011;40730;53.068;6.572;2023-04-01T11:26:04;1.85;;;0.80;;
54831;SDS011;40730;53.068;6.572;2023-04-01T11:31:40;2.35;;;1.63;;
54831;SDS011;40730;53.068;6.572;2023-04-01T11:42:54;3.08;;;2.38;;
54831;SDS011;40730;53.068;6.572;2023-04-01T11:45:50;2.53;;;2.20;;
54831;SDS011;40730;53.068;6.572;2023-04-01T11:48:40;1.70;;;1.20;;
54831;SDS011;40730;53.068;6.572;2023-04-01T11:59:42;1.27;;;0.93;;
54831;SDS011;40730;53.068;6.572;2023-04-01T12:02:42;1.20;;;0.80;;
54831;SDS011;40730;53.068;6.572;2023-04-01T12:05:37;1.92;;;1.08;;
54831;SDS011;40730;53.068;6.572;2023-04-01T12:08:31;1.42;;;1.10;;
54831;SDS011;40730;53.068;6.572;2023-04-01T12:11:26;2.03;;;1.20;;
54831;SDS011;40730;53.068;6.572;2023-04-01T12:14:14;1.40;;;1.00;;
54831;SDS011;40730;53.068;6.572;2023-04-01T12:16:59;1.67;;;0.68;;
54831;SDS011;40730;53.068;6.572;2023-04-01T12:25:25;1.33;;;1.10;;
54831;SDS011;40730;53.068;6.572;2023-04-01T12:33:38;1.40;;;1.05;;
54831;SDS011;40730;53.068;6.572;2023-04-01T12:50:52;2.85;;;1.15;;
54831;SDS011;40730;53.068;6.572;2023-04-01T12:53:30;1.60;;;1.30;;
54831;SDS011;40730;53.068;6.572;2023-04-01T12:59:19;1.35;;;1.23;;
54831;SDS011;40730;53.068;6.572;2023-04-01T13:05:38;1.30;;;1.20;;
54831;SDS011;40730;53.068;6.572;2023-04-01T13:08:24;1.35;;;1.00;;
54831;SDS011;40730;53.068;6.572;2023-04-01T13:14:04;1.50;;;0.88;;
54831;SDS011;40730;53.068;6.572;2023-04-01T13:16:40;1.80;;;1.00;;
54831;SDS011;40730;53.068;6.572;2023-04-01T13:19:29;1.58;;;1.17;;
54831;SDS011;40730;53.068;6.572;2023-04-01T13:22:11;1.80;;;0.70;;
54831;SDS011;40730;53.068;6.572;2023-04-01T13:27:39;1.67;;;0.70;;
54831;SDS011;40730;53.068;6.572;2023-04-01T13:36:03;1.60;;;0.60;;
54831;SDS011;40730;53.068;6.572;2023-04-01T13:39:00;1.23;;;0.80;;
54831;SDS011;40730;53.068;6.572;2023-04-01T13:44:31;1.45;;;0.60;;
54831;SDS011;40730;53.068;6.572;2023-04-01T13:50:22;1.25;;;0.60;;
54831;SDS011;40730;53.068;6.572;2023-04-01T13:58:38;1.50;;;0.68;;
54831;SDS011;40730;53.068;6.572;2023-04-01T14:01:39;1.20;;;0.55;;
54831;SDS011;40730;53.068;6.572;2023-04-01T14:04:35;2.08;;;0.50;;
54831;SDS011;40730;53.068;6.572;2023-04-01T14:07:32;1.40;;;0.80;;
54831;SDS011;40730;53.068;6.572;2023-04-01T14:13:20;1.63;;;0.52;;
54831;SDS011;40730;53.068;6.572;2023-04-01T14:15:57;0.80;;;0.30;;
54831;SDS011;40730;53.068;6.572;2023-04-01T14:21:43;1.23;;;0.50;;
54831;SDS011;40730;53.068;6.572;2023-04-01T14:24:29;1.13;;;0.50;;
54831;SDS011;40730;53.068;6.572;2023-04-01T14:51:16;1.05;;;0.60;;
54831;SDS011;40730;53.068;6.572;2023-04-01T14:53:58;1.55;;;1.15;;
54831;SDS011;40730;53.068;6.572;2023-04-01T14:57:13;2.25;;;0.73;;
54831;SDS011;40730;53.068;6.572;2023-04-01T14:59:41;0.80;;;0.68;;
54831;SDS011;40730;53.068;6.572;2023-04-01T15:02:28;1.13;;;0.47;;
54831;SDS011;40730;53.068;6.572;2023-04-01T15:08:00;0.70;;;0.50;;
54831;SDS011;40730;53.068;6.572;2023-04-01T15:10:38;2.10;;;0.60;;
54831;SDS011;40730;53.068;6.572;2023-04-01T15:13:26;1.92;;;1.13;;
54831;SDS011;40730;53.068;6.572;2023-04-01T15:16:44;1.15;;;0.57;;
54831;SDS011;40730;53.068;6.572;2023-04-01T15:19:20;1.10;;;0.68;;
54831;SDS011;40730;53.068;6.572;2023-04-01T15:22:03;1.00;;;0.50;;
54831;SDS011;40730;53.068;6.572;2023-04-01T15:24:58;0.80;;;0.47;;
54831;SDS011;40730;53.068;6.572;2023-04-01T15:44:37;2.80;;;1.00;;
54831;SDS011;40730;53.068;6.572;2023-04-01T15:52:50;1.13;;;0.55;;
54831;SDS011;40730;53.068;6.572;2023-04-01T15:58:27;1.90;;;0.93;;
54831;SDS011;40730;53.068;6.572;2023-04-01T16:03:57;1.98;;;1.20;;
54831;SDS011;40730;53.068;6.572;2023-04-01T16:09:48;1.98;;;1.42;;
54831;SDS011;40730;53.068;6.572;2023-04-01T16:21:05;3.25;;;1.55;;
54831;SDS011;40730;53.068;6.572;2023-04-01T16:23:49;4.50;;;1.80;;
54831;SDS011;40730;53.068;6.572;2023-04-01T16:26:34;2.40;;;1.85;;
54831;SDS011;40730;53.068;6.572;2023-04-01T16:38:16;7.25;;;3.17;;
54831;SDS011;40730;53.068;6.572;2023-04-01T16:40:50;5.05;;;2.50;;
54831;SDS011;40730;53.068;6.572;2023-04-01T17:00:22;6.05;;;3.42;;
54831;SDS011;40730;53.068;6.572;2023-04-01T17:02:50;6.32;;;2.75;;
54831;SDS011;40730;53.068;6.572;2023-04-01T17:11:10;10.85;;;3.80;;
54831;SDS011;40730;53.068;6.572;2023-04-01T17:14:10;4.70;;;3.22;;
54831;SDS011;40730;53.068;6.572;2023-04-01T17:17:39;5.32;;;2.67;;
54831;SDS011;40730;53.068;6.572;2023-04-01T17:19:59;7.05;;;3.47;;
54831;SDS011;40730;53.068;6.572;2023-04-01T17:22:48;8.05;;;3.72;;
54831;SDS011;40730;53.068;6.572;2023-04-01T17:25:25;3.47;;;1.35;;
54831;SDS011;40730;53.068;6.572;2023-04-01T17:30:58;5.90;;;3.28;;
54831;SDS011;40730;53.068;6.572;2023-04-01T17:39:17;5.85;;;2.90;;
54831;SDS011;40730;53.068;6.572;2023-04-01T17:44:53;4.40;;;2.15;;
54831;SDS011;40730;53.068;6.572;2023-04-01T17:50:01;4.30;;;3.17;;
54831;SDS011;40730;53.068;6.572;2023-04-01T18:06:47;7.78;;;3.30;;
54831;SDS011;40730;53.068;6.572;2023-04-01T18:20:46;6.20;;;3.45;;
54831;SDS011;40730;53.068;6.572;2023-04-01T18:23:47;8.00;;;3.53;;
54831;SDS011;40730;53.068;6.572;2023-04-01T18:32:21;7.75;;;3.75;;
54831;SDS011;40730;53.068;6.572;2023-04-01T18:38:00;10.95;;;5.68;;
54831;SDS011;40730;53.068;6.572;2023-04-01T18:40:50;4.82;;;3.40;;
54831;SDS011;40730;53.068;6.572;2023-04-01T18:46:20;9.20;;;3.08;;
54831;SDS011;40730;53.068;6.572;2023-04-01T18:49:39;11.70;;;4.97;;
54831;SDS011;40730;53.068;6.572;2023-04-01T18:51:51;10.45;;;4.55;;
54831;SDS011;40730;53.068;6.572;2023-04-01T18:57:14;7.43;;;4.57;;
54831;SDS011;40730;53.068;6.572;2023-04-01T18:59:43;9.95;;;3.83;;
54831;SDS011;40730;53.068;6.572;2023-04-01T19:02:38;5.90;;;3.88;;
54831;SDS011;40730;53.068;6.572;2023-04-01T19:05:34;15.98;;;8.13;;
54831;SDS011;40730;53.068;6.572;2023-04-01T19:08:35;8.02;;;4.13;;
54831;SDS011;40730;53.068;6.572;2023-04-01T19:17:15;15.05;;;4.43;;
54831;SDS011;40730;53.068;6.572;2023-04-01T19:22:46;9.43;;;4.10;;
54831;SDS011;40730;53.068;6.572;2023-04-01T19:30:48;9.45;;;4.53;;
54831;SDS011;40730;53.068;6.572;2023-04-01T19:33:25;8.68;;;4.13;;
54831;SDS011;40730;53.068;6.572;2023-04-01T19:35:54;11.85;;;4.30;;
54831;SDS011;40730;53.068;6.572;2023-04-01T19:38:31;9.25;;;4.55;;
54831;SDS011;40730;53.068;6.572;2023-04-01T19:44:15;12.20;;;4.78;;
54831;SDS011;40730;53.068;6.572;2023-04-01T19:47:15;7.40;;;4.03;;
54831;SDS011;40730;53.068;6.572;2023-04-01T19:49:56;10.10;;;4.95;;
54831;SDS011;40730;53.068;6.572;2023-04-01T19:52:41;7.78;;;3.75;;
54831;SDS011;40730;53.068;6.572;2023-04-01T20:06:18;10.85;;;5.00;;
54831;SDS011;40730;53.068;6.572;2023-04-01T20:17:16;11.75;;;4.95;;
54831;SDS011;40730;53.068;6.572;2023-04-01T20:27:54;12.02;;;4.93;;
54831;SDS011;40730;53.068;6.572;2023-04-01T20:33:33;9.57;;;5.15;;
54831;SDS011;40730;53.068;6.572;2023-04-01T20:41:42;10.23;;;3.72;;
54831;SDS011;40730;53.068;6.572;2023-04-01T20:44:10;5.53;;;3.67;;
54831;SDS011;40730;53.068;6.572;2023-04-01T20:46:48;6.35;;;2.75;;
54831;SDS011;40730;53.068;6.572;2023-04-01T20:54:41;4.65;;;2.60;;
54831;SDS011;40730;53.068;6.572;2023-04-01T21:08:01;7.82;;;2.15;;
54831;SDS011;40730;53.068;6.572;2023-04-01T21:10:41;7.57;;;3.60;;
54831;SDS011;40730;53.068;6.572;2023-04-01T21:41:17;8.18;;;2.75;;
54831;SDS011;40730;53.068;6.572;2023-04-01T21:46:59;4.43;;;2.63;;
54831;SDS011;40730;53.068;6.572;2023-04-01T21:52:51;4.32;;;2.75;;
54831;SDS011;40730;53.068;6.572;2023-04-01T22:06:59;7.10;;;3.67;;
54831;SDS011;40730;53.068;6.572;2023-04-01T22:15:06;4.90;;;3.28;;
54831;SDS011;40730;53.068;6.572;2023-04-01T22:18:13;7.65;;;3.13;;
54831;SDS011;40730;53.068;6.572;2023-04-01T22:20:51;7.88;;;3.53;;
54831;SDS011;40730;53.068;6.572;2023-04-01T22:23:37;7.63;;;2.95;;
54831;SDS011;40730;53.068;6.572;2023-04-01T22:31:35;7.25;;;1.88;;
54831;SDS011;40730;53.068;6.572;2023-04-01T22:34:13;5.32;;;1.58;;
54831;SDS011;40730;53.068;6.572;2023-04-01T22:47:58;6.32;;;2.40;;
54831;SDS011;40730;53.068;6.572;2023-04-01T22:50:36;9.02;;;2.83;;
54831;SDS011;40730;53.068;6.572;2023-04-01T22:53:47;9.80;;;1.55;;
54831;SDS011;40730;53.068;6.572;2023-04-01T22:56:11;6.28;;;1.65;;
54831;SDS011;40730;53.068;6.572;2023-04-01T22:58:50;4.72;;;2.30;;
54831;SDS011;40730;53.068;6.572;2023-04-01T23:01:33;7.68;;;1.27;;
54831;SDS011;40730;53.068;6.572;2023-04-01T23:04:04;6.22;;;1.88;;
54831;SDS011;40730;53.068;6.572;2023-04-01T23:06:33;5.50;;;2.17;;
54831;SDS011;40730;53.068;6.572;2023-04-01T23:25:32;6.68;;;2.17;;
54831;SDS011;40730;53.068;6.572;2023-04-01T23:33:11;6.07;;;2.38;;
54831;SDS011;40730;53.068;6.572;2023-04-01T23:35:55;6.45;;;3.10;;
54831;SDS011;40730;53.068;6.572;2023-04-01T23:38:32;6.45;;;3.05;;
54831;SDS011;40730;53.068;6.572;2023-04-01T23:41:00;8.32;;;2.65;;
54831;SDS011;40730;53.068;6.572;2023-04-01T23:43:28;5.93;;;2.13;;
54831;SDS011;40730;53.068;6.572;2023-04-01T23:45:56;7.72;;;2.35;;
54831;SDS011;40730;53.068;6.572;2023-04-01T23:48:27;5.75;;;1.70;;
54831;SDS011;40730;53.068;6.572;2023-04-01T23:51:01;4.47;;;2.38;;
54831;SDS011;40730;53.068;6.572;2023-04-01T23:53:29;7.10;;;2.78;;
54831;SDS011;40730;53.068;6.572;2023-04-01T23:55:57;8.30;;;2.47;;
54831;SDS011;40730;53.068;6.572;2023-04-01T23:58:27;4.53;;;2.03;;
